Metar Cercanos

 

LEPA - Palma De Mallorc, Spain
Distance from station: ONO 38km
Actualización: 18/11/2017 09:00
Few Clouds
Few Clouds
 Viento del calm
Viento: Calma
Temperatura: 9°C
Rocío: 7°C
Humedad: 87%
Barómetro: 1020 hPa
Clouds: Few Clouds
Visibility: 10 km
Cloud details: Few Clouds 914 m
2017/11/18 08:00 LEPA 180800Z 00000KT 9999 FEW030 09/07 Q1020 NOSIG
LEMH - Mahon/Menorca Is, Spain
Distance from station: ENE 105km
Actualización: 18/11/2017 09:00
Few Clouds
Few Clouds
 Viento del N
Viento: N 17 km/h
Temperatura: 14°C
Rocío: 8°C
Humedad: 67%
Barómetro: 1020 hPa
Clouds: Few Clouds
Visibility: 10 km
Cloud details: Few Clouds 1067 m
2017/11/18 08:00 LEMH 180800Z 36009KT 320V030 9999 FEW035 14/08 Q1020
 
LEIB - Ibiza/Es Codola, Spain
Distance from station: OSO 165km
Actualización: 18/11/2017 09:00
Few Clouds
Few Clouds
 Viento del calm
Viento: Calma
Temperatura: 12°C
Rocío: 11°C
Humedad: 94%
Barómetro: 1020 hPa
Clouds: Few Clouds
Visibility: 10 km
Cloud details: Few Clouds 914 m
2017/11/18 08:00 LEIB 180800Z 00000KT 9999 FEW030 12/11 Q1020 NOSIG
LEBL - Barcelona Airpor, Spain
Distance from station: NNO 225km
Actualización: 18/11/2017 09:00
Few Clouds
Few Clouds
 Viento del NNO
Viento: NNO 24 km/h
Temperatura: 8°C
Sensación frio: 4°C
Rocío: 2°C
Humedad: 66%
Barómetro: 1019 hPa
Clouds: Few Clouds
Visibility: 10 km
Cloud details: Few Clouds 762 m
2017/11/18 08:00 LEBL 180800Z 33013KT 310V080 9999 FEW025 08/02 Q1019 NOSIG
 
LEVC - Valencia (civ/Mi, Spain
Distance from station: NO 188km
Actualización: 18/11/2017 09:00
Despejado
Despejado
 Viento del varies
Viento: varies 2 km/h
Temperatura: 8°C
Rocío: 2°C
Humedad: 66%
Barómetro: 1020 hPa
Resumen: Despejado
Visibility: greater than 10 km
2017/11/18 08:00 LEVC 180800Z VRB01KT CAVOK 08/02 Q1020 NOSIG
LEGE - Gerona/Costa Bra, Spain
Distance from station: N 276km
Actualización: 18/11/2017 09:00
Parcialmente nuboso
Parcialmente nuboso
 Viento del varies
Viento: varies 2 km/h
Temperatura: 4°C
Rocío: 4°C
Humedad: 100%
Barómetro: 1020 hPa
Clouds: Parcialmente nuboso
Visibility: 10 km
Cloud details: Parcialmente nuboso 549 m
2017/11/18 08:00 LEGE 180800Z VRB01KT 9999 SCT018 04/04 Q1020
 
LEAL - Alicante/El Alte, Spain
Distance from station: OSO 344km
Actualización: 18/11/2017 09:00
Despejado
Despejado
 Viento del SO
Viento: SO 9 km/h
Temperatura: 9°C
Sensación frio: 7°C
Rocío: 5°C
Humedad: 76%
Barómetro: 1020 hPa
Resumen: Despejado
Visibility: greater than 10 km
2017/11/18 08:00 LEAL 180800Z 23005KT CAVOK 09/05 Q1020 NOSIG
LEAM - Almeria Airport, Spain
Distance from station: SSO 56km
Actualización: 18/11/2017 09:00
Despejado
Despejado
 Viento del NNO
Viento: NNO 17 km/h
Temperatura: 12°C
Rocío: 6°C
Humedad: 67%
Barómetro: 1020 hPa
Resumen: Despejado
Visibility: greater than 10 km
2017/11/18 08:00 LEAM 180800Z 33009KT CAVOK 12/06 Q1020
 
LEZG - Zaragoza (mil/Ci, Spain
Distance from station: NO 431km
Actualización: 18/11/2017 09:00
Despejado
Despejado
 Viento del O
Viento: O 28 km/h
Temperatura: 9°C
Sensación frio: 6°C
Rocío: 4°C
Humedad: 71%
Barómetro: 1021 hPa
Resumen: Despejado
Visibility: greater than 10 km
2017/11/18 08:00 LEZG 180800Z 27015KT CAVOK 09/04 Q1021
LEMD - Madrid/Barajas, Spain
Distance from station: ONO 234km
Actualización: 18/11/2017 09:00
Despejado
Despejado
 Viento del N
Viento: N 6 km/h
Temperatura: 3°C
Rocío: 1°C
Humedad: 87%
Barómetro: 1021 hPa
Resumen: Despejado
Visibility: greater than 10 km
2017/11/18 08:00 LEMD 180800Z 35003KT CAVOK 03/01 Q1021 NOSIG
 
LEGR - Granada Airport, Spain
Distance from station: OSO 62km
Actualización: 18/11/2017 09:00
Despejado
Despejado
 Viento del calm
Viento: Calma
Temperatura: 3°C
Rocío: 2°C
Humedad: 93%
Barómetro: 1021 hPa
Resumen: Despejado
Visibility: greater than 10 km
2017/11/18 08:00 LEGR 180800Z 00000KT CAVOK 03/02 Q1021
LEMG - Malaga (civ/Mil), Spain
Distance from station: OSO 227km
Actualización: 18/11/2017 09:00
Few Clouds
Few Clouds
 Viento del ONO
Viento: ONO 15 km/h
Temperatura: 8°C
Sensación frio: 5°C
Rocío: 7°C
Humedad: 93%
Barómetro: 1020 hPa
Clouds: Few Clouds
Visibility: 10 km
Cloud details: Few Clouds 457 m
2017/11/18 08:00 LEMG 180800Z 29008KT 9999 FEW015 08/07 Q1020 NOSIG
 
LEZL - Sevilla (civ/Mil, Spain
Distance from station: S 318km
Actualización: 18/11/2017 09:00
Despejado
Despejado
 Viento del NE
Viento: NE 11 km/h
Temperatura: 8°C
Sensación frio: 6°C
Rocío: 5°C
Humedad: 82%
Barómetro: 1019 hPa
Resumen: Despejado
Visibility: greater than 10 km
2017/11/18 08:00 LEZL 180800Z 04006KT CAVOK 08/05 Q1019 NOSIG
LEVT - Vitoria, Spain
Distance from station: NO 226km
Actualización: 18/11/2017 09:00
Mist, Muy nuboso
Mist, Muy nuboso
 Viento del calm
Viento: Calma
Temperatura: 3°C
Rocío: 3°C
Humedad: 100%
Barómetro: 1024 hPa
Resumen: Mist
Clouds: Muy nuboso
Visibility: 4 km
Cloud details: Muy nuboso 91 m
Muy nuboso 579 m
2017/11/18 08:00 LEVT 180800Z 00000KT 4000 BR BKN003 BKN019 03/03 Q1024
 
LEBB - Bilbao/Sondica, Spain
Distance from station: NNO 235km
Actualización: 18/11/2017 09:00
Patches of fog, Parcialmente nuboso
Patches of fog, Parcialmente nuboso
 Viento del calm
Viento: Calma
Temperatura: 6°C
Rocío: 6°C
Humedad: 100%
Barómetro: 1025 hPa
Resumen: Patches of Fog
Clouds: Parcialmente nuboso
Visibility: 4 km
Cloud details: Few Clouds 152 m
Parcialmente nuboso 1006 m
2017/11/18 08:00 LEBB 180800Z 00000KT 3500 BCFG FEW005 SCT033 06/06 Q1025 TEMPO 6000
LESO - San Sebastian/Fu, Spain
Distance from station: N 231km
Actualización: 18/11/2017 09:00
Muy nuboso
Muy nuboso
 Viento del calm
Viento: Calma
Temperatura: 8°C
Rocío: 7°C
Humedad: 93%
Barómetro: 1024 hPa
Clouds: Muy nuboso
Visibility: 10 km
Cloud details: Muy nuboso 701 m
2017/11/18 08:00 LESO 180800Z 00000KT 9999 BKN023 08/07 Q1024
 
LEVD - Valladolid(Mil/C, Spain
Distance from station: ONO 239km
Actualización: 18/11/2017 09:00
Despejado
Despejado
 Viento del E
Viento: E 7 km/h
Temperatura: 3°C
Sensación frio: 1°C
Rocío: 0°C
Humedad: 81%
Barómetro: 1022 hPa
Resumen: Despejado
Visibility: greater than 10 km
2017/11/18 08:00 LEVD 180800Z 08004KT CAVOK 03/M00 Q1022
LESA - Salamanca (civ/M, Spain
Distance from station: ONO 349km
Actualización: 18/11/2017 09:00
Despejado
Despejado
 Viento del calm
Viento: Calma
Temperatura: -2°C
Rocío: -3°C
Humedad: 93%
Barómetro: 1022 hPa
Resumen: Despejado
Visibility: greater than 10 km
2017/11/18 08:00 LESA 180800Z 00000KT CAVOK M02/M03 Q1022
 
LEXJ - Santander/Paraya, Spain
Distance from station: NNO 247km
Actualización: 18/11/2017 09:00
Muy nuboso
Muy nuboso
 Viento del calm
Viento: Calma
Temperatura: 9°C
Rocío: 8°C
Humedad: 94%
Barómetro: 1024 hPa
Clouds: Muy nuboso
Visibility: 10 km
Cloud details: Muy nuboso 975 m
2017/11/18 08:00 LEXJ 180800Z 00000KT 9999 BKN032 09/08 Q1024
LEAS - Asturias/Aviles, Spain
Distance from station: NO 214km
Actualización: 18/11/2017 09:00
Few Clouds
Few Clouds
 Viento del SSO
Viento: SSO 2 km/h
Temperatura: 7°C
Rocío: 6°C
Humedad: 93%
Barómetro: 1024 hPa
Clouds: Few Clouds
Visibility: 10 km
Cloud details: Few Clouds 549 m
2017/11/18 08:00 LEAS 180800Z 20001KT 9999 FEW018 07/06 Q1024 NOSIG
 
LECO - La Coruna/Alvedr, Spain
Distance from station: ONO 222km
Actualización: 18/11/2017 09:00
Patches of fog, Parcialmente nuboso
Patches of fog, Parcialmente nuboso
 Viento del SSO
Viento: SSO 6 km/h
Temperatura: 3°C
Rocío: 3°C
Humedad: 100%
Barómetro: 1022 hPa
Resumen: Patches of Fog
Clouds: Parcialmente nuboso
Visibility: 7 km
2017/11/18 08:00 LECO 180800Z 20003KT 7000 BCFG NSC 03/03 Q1022 TEMPO 0800 FG
LEVX - Vigo/Peinador, Spain
Distance from station: O 214km
Actualización: 18/11/2017 09:00
Parcialmente nuboso
Parcialmente nuboso
 Viento del SO
Viento: SO 9 km/h
Temperatura: 6°C
Sensación frio: 4°C
Rocío: 6°C
Humedad: 100%
Barómetro: 1020 hPa
Clouds: Parcialmente nuboso
Visibility: 8 km
2017/11/18 08:00 LEVX 180800Z 22005KT 190V250 8000 NSC 06/06 Q1020 NOSIG